createdAt,value
2022-08-22T00:02:32.975Z,79.19
2022-08-22T00:05:10.269Z,79.36
2022-08-22T00:07:49.233Z,79.10
2022-08-22T00:10:27.886Z,79.38
2022-08-22T00:13:14.564Z,79.26
2022-08-22T00:15:47.428Z,79.45
2022-08-22T00:18:24.900Z,79.29
2022-08-22T00:20:51.251Z,79.32
2022-08-22T00:23:44.779Z,79.99
2022-08-22T00:26:21.150Z,79.72
2022-08-22T00:28:55.897Z,80.14
2022-08-22T00:31:29.060Z,79.93
2022-08-22T00:34:10.151Z,79.92
2022-08-22T00:36:47.654Z,80.09
2022-08-22T00:39:26.870Z,80.19
2022-08-22T00:42:14.117Z,79.99
2022-08-22T00:44:59.954Z,79.78
2022-08-22T00:47:44.696Z,79.63
2022-08-22T00:50:34.350Z,79.50
2022-08-22T00:53:33.068Z,79.88
2022-08-22T00:56:24.529Z,79.79
2022-08-22T00:59:23.112Z,79.84
2022-08-22T01:02:03.617Z,80.24
2022-08-22T01:05:01.092Z,79.93
2022-08-22T01:07:54.235Z,80.19
2022-08-22T01:11:01.333Z,80.44
2022-08-22T01:14:00.292Z,80.82
2022-08-22T01:16:48.009Z,80.61
2022-08-22T01:19:25.318Z,81.02
2022-08-22T01:22:14.179Z,80.87
2022-08-22T01:25:18.321Z,81.06
2022-08-22T01:28:17.310Z,81.38
2022-08-22T01:31:12.087Z,81.60
2022-08-22T01:34:15.901Z,81.40
2022-08-22T01:37:10.693Z,80.91
2022-08-22T01:39:43.174Z,80.72
2022-08-22T01:42:40.382Z,81.14
2022-08-22T01:45:35.923Z,80.99
2022-08-22T01:48:10.773Z,80.85
2022-08-22T01:50:43.549Z,81.45
2022-08-22T01:53:22.732Z,81.52
2022-08-22T01:56:12.066Z,81.49
2022-08-22T01:58:45.872Z,81.27
2022-08-22T02:01:37.248Z,81.04
2022-08-22T02:04:14.353Z,80.66
2022-08-22T02:06:44.718Z,80.14
2022-08-22T02:09:30.711Z,80.15
2022-08-22T02:12:22.112Z,80.59
2022-08-22T02:15:20.613Z,80.97
2022-08-22T02:18:14.412Z,80.97
2022-08-22T02:21:05.070Z,80.76
2022-08-22T02:24:00.771Z,80.88
2022-08-22T02:26:51.333Z,80.93
2022-08-22T02:29:29.470Z,80.79
2022-08-22T02:32:05.859Z,80.80
2022-08-22T02:34:39.612Z,80.84
2022-08-22T02:37:17.879Z,80.95
2022-08-22T02:40:06.261Z,81.17
2022-08-22T02:42:48.965Z,81.30
2022-08-22T02:45:40.224Z,81.65
2022-08-22T02:48:21.794Z,81.30
2022-08-22T02:51:01.839Z,81.22
2022-08-22T02:53:55.238Z,81.26
2022-08-22T02:56:32.395Z,81.34
2022-08-22T02:59:27.049Z,81.13
2022-08-22T03:01:55.129Z,81.11
2022-08-22T03:04:30.692Z,81.01
2022-08-22T03:07:12.496Z,81.32
2022-08-22T03:09:49.915Z,81.58
2022-08-22T03:12:41.786Z,81.26
2022-08-22T03:15:30.524Z,81.28
2022-08-22T03:18:06.835Z,81.16
2022-08-22T03:20:44.446Z,81.35
2022-08-22T03:23:23.896Z,81.39
2022-08-22T03:26:01.301Z,81.16
2022-08-22T03:28:59.129Z,80.47
2022-08-22T03:31:28.989Z,80.01
2022-08-22T03:34:22.908Z,79.99
2022-08-22T03:37:02.545Z,79.75
2022-08-22T03:39:48.626Z,79.83
2022-08-22T03:42:27.176Z,79.66
2022-08-22T03:44:56.556Z,80.23
2022-08-22T03:48:10.206Z,80.47
2022-08-22T03:51:01.166Z,80.69
2022-08-22T03:53:45.941Z,80.55
2022-08-22T03:56:38.743Z,80.63
2022-08-22T03:59:10.194Z,80.93
2022-08-22T04:01:58.246Z,81.10
2022-08-22T04:05:00.625Z,80.99
2022-08-22T04:07:49.854Z,80.89
2022-08-22T04:10:56.454Z,81.27
2022-08-22T04:13:47.370Z,81.42
2022-08-22T04:16:41.161Z,81.44
2022-08-22T04:19:40.323Z,81.44
2022-08-22T04:22:25.524Z,80.75
2022-08-22T04:24:54.421Z,80.06
2022-08-22T04:27:30.080Z,80.25
2022-08-22T04:30:01.869Z,80.12
2022-08-22T04:32:44.238Z,80.01
2022-08-22T04:35:34.730Z,79.72
2022-08-22T04:38:10.329Z,80.07
2022-08-22T04:40:46.565Z,80.35
2022-08-22T04:43:30.501Z,79.96
2022-08-22T04:46:16.034Z,79.83
2022-08-22T04:48:56.945Z,79.64
2022-08-22T04:51:33.479Z,79.70
2022-08-22T04:54:32.553Z,79.94
2022-08-22T04:57:16.762Z,79.90
2022-08-22T04:59:43.368Z,79.82
2022-08-22T05:02:12.812Z,80.05
2022-08-22T05:04:46.808Z,80.17
2022-08-22T05:07:29.107Z,80.02
2022-08-22T05:10:12.005Z,80.19
2022-08-22T05:12:51.372Z,80.41
2022-08-22T05:15:33.367Z,80.75
2022-08-22T05:18:08.592Z,81.05
2022-08-22T05:20:39.264Z,80.96
2022-08-22T05:23:26.125Z,80.74
2022-08-22T05:25:56.875Z,80.51
2022-08-22T05:28:53.570Z,80.48
2022-08-22T05:31:28.879Z,80.32
2022-08-22T05:34:02.527Z,80.24
2022-08-22T05:36:35.130Z,80.39
2022-08-22T05:39:25.324Z,80.05
2022-08-22T05:41:54.393Z,79.99
2022-08-22T05:44:25.218Z,79.91
2022-08-22T05:47:01.651Z,79.97
2022-08-22T05:49:28.016Z,80.28
2022-08-22T05:52:31.807Z,79.76
2022-08-22T05:55:10.212Z,79.35
2022-08-22T05:57:42.169Z,79.76
2022-08-22T06:00:12.977Z,79.81
2022-08-22T06:03:01.095Z,79.78
2022-08-22T06:05:31.242Z,80.08
2022-08-22T06:08:13.782Z,79.90
2022-08-22T06:10:48.061Z,79.94
2022-08-22T06:13:41.515Z,79.89
2022-08-22T06:16:17.318Z,79.55
2022-08-22T06:18:45.844Z,79.96
2022-08-22T06:21:21.352Z,79.90
2022-08-22T06:24:13.608Z,79.62
2022-08-22T06:33:16.476Z,79.19
2022-08-22T06:37:47.321Z,79.09
2022-08-22T06:39:52.051Z,79.18
2022-08-22T06:42:37.770Z,78.99
2022-08-22T06:45:58.282Z,78.93
2022-08-22T06:48:25.269Z,78.57
2022-08-22T06:50:55.733Z,78.11
2022-08-22T06:53:32.713Z,78.23
2022-08-22T06:56:07.393Z,78.52
2022-08-22T06:58:38.660Z,78.48
2022-08-22T07:01:16.720Z,78.01
2022-08-22T07:03:50.705Z,77.81
2022-08-22T07:06:20.922Z,77.96
2022-08-22T07:08:52.937Z,77.51
2022-08-22T07:11:23.315Z,77.67
2022-08-22T07:14:03.704Z,77.40
2022-08-22T07:16:32.552Z,77.54
2022-08-22T07:18:59.573Z,77.30
2022-08-22T07:21:32.629Z,77.36
2022-08-22T07:24:03.135Z,77.17
2022-08-22T07:26:44.549Z,76.63
2022-08-22T07:29:38.625Z,76.57
2022-08-22T07:33:25.172Z,76.15
2022-08-22T07:36:09.009Z,75.72
2022-08-22T07:38:51.048Z,75.88
2022-08-22T07:41:42.476Z,75.83
2022-08-22T07:44:25.443Z,75.36
2022-08-22T07:47:10.098Z,74.95
2022-08-22T07:50:07.407Z,74.92
2022-08-22T07:52:48.820Z,75.01
2022-08-22T07:55:27.072Z,74.60
2022-08-22T07:58:05.070Z,74.08
2022-08-22T08:00:35.391Z,73.91
2022-08-22T08:03:08.857Z,73.44
2022-08-22T08:05:56.270Z,73.54
2022-08-22T08:08:37.778Z,73.36
2022-08-22T08:11:21.022Z,72.56
2022-08-22T08:14:01.579Z,72.19
2022-08-22T08:16:53.355Z,71.68
2022-08-22T08:19:42.168Z,71.50
2022-08-22T08:22:32.947Z,70.69
2022-08-22T08:25:13.995Z,70.57
2022-08-22T08:28:06.729Z,69.97
2022-08-22T08:31:07.738Z,69.27
2022-08-22T08:33:56.503Z,68.94
2022-08-22T08:36:41.271Z,67.69
2022-08-22T08:39:35.296Z,67.37
2022-08-22T08:43:00.790Z,67.00
2022-08-22T08:46:03.766Z,66.69
2022-08-22T08:49:06.418Z,66.92
2022-08-22T08:51:59.182Z,65.94
2022-08-22T08:54:57.946Z,66.08
2022-08-22T09:00:17.790Z,65.02
2022-08-22T09:02:48.675Z,64.20
2022-08-22T09:08:12.572Z,64.66
2022-08-22T09:11:14.369Z,64.71
2022-08-22T09:14:22.682Z,63.79
2022-08-22T09:17:11.395Z,62.96
2022-08-22T09:19:49.265Z,61.63
2022-08-22T09:22:27.310Z,60.96
2022-08-22T09:25:40.556Z,60.08
2022-08-22T09:28:24.474Z,59.02
2022-08-22T09:31:44.947Z,59.52
2022-08-22T09:34:25.665Z,58.17
2022-08-22T09:37:14.939Z,58.78
2022-08-22T09:39:49.569Z,57.82
2022-08-22T09:43:13.683Z,57.79
2022-08-22T09:45:55.686Z,56.01
2022-08-22T09:48:38.390Z,55.87
2022-08-22T09:51:33.289Z,55.75
2022-08-22T09:54:31.279Z,53.53
2022-08-22T09:57:01.763Z,53.88
2022-08-22T10:00:05.191Z,54.00
2022-08-22T10:02:55.453Z,53.74
2022-08-22T10:05:46.506Z,54.66
2022-08-22T10:08:55.661Z,53.58
2022-08-22T10:11:32.353Z,53.12
2022-08-22T10:14:09.106Z,52.36
2022-08-22T10:17:02.623Z,52.09
2022-08-22T10:20:10.562Z,50.61
2022-08-22T10:23:00.331Z,50.63
2022-08-22T10:25:49.875Z,50.67
2022-08-22T10:28:50.118Z,50.50
2022-08-22T10:32:00.083Z,50.44
2022-08-22T10:35:21.557Z,48.84
2022-08-22T10:57:28.950Z,45.75
2022-08-22T11:00:22.429Z,44.19
2022-08-22T11:03:03.981Z,43.90
2022-08-22T11:05:50.016Z,44.44
2022-08-22T11:08:47.638Z,44.57
2022-08-22T11:11:35.331Z,45.08
2022-08-22T11:14:13.713Z,43.09
2022-08-22T11:16:55.209Z,44.06
2022-08-22T11:19:34.141Z,43.99
2022-08-22T11:22:14.230Z,44.42
2022-08-22T11:24:56.388Z,42.84
2022-08-22T11:27:51.178Z,42.30
2022-08-22T11:31:03.703Z,42.98
2022-08-22T11:34:06.926Z,43.30
2022-08-22T11:37:02.991Z,42.69
2022-08-22T11:40:07.566Z,43.11
2022-08-22T11:43:05.974Z,42.39
2022-08-22T11:45:43.440Z,42.04
2022-08-22T11:48:39.652Z,42.13
2022-08-22T11:51:25.344Z,40.44
2022-08-22T11:54:31.080Z,39.92
2022-08-22T11:57:33.438Z,40.51
2022-08-22T12:00:23.969Z,39.09
2022-08-22T12:03:08.785Z,38.49
2022-08-22T12:05:44.045Z,38.18
2022-08-22T12:08:22.269Z,37.63
2022-08-22T12:11:26.574Z,37.46
2022-08-22T12:14:06.165Z,37.25
2022-08-22T12:17:02.246Z,38.73
2022-08-22T12:20:16.259Z,38.00
2022-08-22T12:23:08.648Z,38.32
2022-08-22T12:25:51.386Z,37.28
2022-08-22T12:28:31.660Z,35.77
2022-08-22T12:31:27.277Z,35.60
2022-08-22T12:34:20.811Z,35.15
2022-08-22T12:36:56.420Z,34.28
2022-08-22T12:39:41.753Z,34.96
2022-08-22T12:42:44.872Z,35.83
2022-08-22T12:45:50.862Z,36.31
2022-08-22T12:48:48.191Z,35.79
2022-08-22T12:51:23.783Z,36.16
2022-08-22T12:53:53.475Z,36.32
2022-08-22T12:56:56.945Z,35.33
2022-08-22T12:59:39.373Z,36.62
2022-08-22T13:02:26.806Z,37.22
2022-08-22T13:05:00.147Z,36.92
2022-08-22T13:07:34.005Z,35.85
2022-08-22T13:10:35.202Z,36.02
2022-08-22T13:13:12.192Z,34.22
2022-08-22T13:15:41.969Z,34.82
2022-08-22T13:18:29.209Z,33.71
2022-08-22T13:21:01.553Z,33.92
2022-08-22T13:23:39.614Z,34.10
2022-08-22T13:26:32.026Z,34.05
2022-08-22T13:29:26.738Z,33.05
2022-08-22T13:32:01.466Z,34.46
2022-08-22T13:34:40.536Z,33.46
2022-08-22T13:37:17.989Z,33.24
2022-08-22T13:39:56.128Z,33.10
2022-08-22T13:42:30.918Z,31.91
2022-08-22T13:45:02.265Z,31.08
2022-08-22T13:47:32.348Z,30.06
2022-08-22T13:50:35.789Z,31.88
2022-08-22T13:53:29.820Z,31.79
2022-08-22T13:56:05.492Z,31.42
2022-08-22T13:58:40.279Z,30.47
2022-08-22T14:01:19.553Z,30.51
2022-08-22T14:04:28.972Z,30.05
2022-08-22T14:07:03.705Z,29.43
2022-08-22T14:09:53.004Z,28.51
2022-08-22T14:12:28.679Z,27.18
2022-08-22T14:15:03.566Z,27.79
2022-08-22T14:17:42.363Z,28.40
2022-08-22T14:20:32.136Z,28.00
2022-08-22T14:23:07.900Z,28.80
2022-08-22T14:25:39.139Z,29.00
2022-08-22T14:28:21.276Z,28.17
2022-08-22T14:31:07.205Z,28.58
2022-08-22T14:33:39.731Z,28.35
2022-08-22T14:36:21.189Z,28.15
2022-08-22T14:38:56.386Z,28.63
2022-08-22T14:41:52.294Z,28.14
2022-08-22T14:44:52.257Z,27.33
2022-08-22T14:47:55.010Z,27.14
2022-08-22T14:51:08.560Z,27.23
2022-08-22T14:53:38.583Z,27.88
2022-08-22T14:56:28.137Z,27.25
2022-08-22T14:59:02.720Z,26.88
2022-08-22T15:01:33.299Z,26.53
2022-08-22T15:04:10.087Z,26.75
2022-08-22T15:06:48.174Z,27.23
2022-08-22T15:09:30.988Z,26.67
2022-08-22T15:11:58.210Z,26.50
2022-08-22T15:14:37.028Z,25.53
2022-08-22T15:17:08.437Z,25.75
2022-08-22T15:19:42.435Z,25.52
2022-08-22T15:22:27.911Z,26.37
2022-08-22T15:25:12.338Z,24.87
2022-08-22T15:28:20.439Z,25.21
2022-08-22T15:31:03.442Z,24.96
2022-08-22T15:33:32.464Z,24.08
2022-08-22T15:36:12.099Z,24.43
2022-08-22T15:38:48.642Z,24.69
2022-08-22T15:41:36.982Z,24.80
2022-08-22T15:44:14.872Z,26.46
2022-08-22T15:47:02.971Z,26.44
2022-08-22T15:49:38.957Z,26.22
2022-08-22T15:52:19.478Z,26.73
2022-08-22T15:54:55.061Z,26.79
2022-08-22T15:57:50.952Z,26.01
2022-08-22T16:00:27.855Z,26.58
2022-08-22T16:02:57.360Z,26.27
2022-08-22T16:05:51.891Z,25.92
2022-08-22T16:08:27.885Z,26.04
2022-08-22T16:11:02.006Z,25.73
2022-08-22T16:13:31.758Z,25.40
2022-08-22T16:16:45.485Z,26.13
2022-08-22T16:19:25.287Z,25.60
2022-08-22T16:21:51.724Z,26.16
2022-08-22T16:24:18.172Z,25.27
2022-08-22T16:26:45.912Z,25.52
2022-08-22T16:29:17.549Z,25.58
2022-08-22T16:31:44.645Z,24.36
2022-08-22T16:34:17.467Z,25.05
2022-08-22T16:36:51.856Z,24.12
2022-08-22T16:39:21.471Z,23.39
2022-08-22T16:42:15.964Z,23.94
2022-08-22T16:44:46.801Z,23.70
2022-08-22T16:47:17.767Z,25.58
2022-08-22T16:49:50.306Z,25.45
2022-08-22T16:52:28.951Z,24.10
2022-08-22T16:55:06.369Z,25.20
2022-08-22T16:58:12.209Z,24.78
2022-08-22T17:01:06.276Z,24.89
2022-08-22T17:03:32.792Z,24.23
2022-08-22T17:06:36.704Z,24.73
2022-08-22T17:09:25.974Z,25.13
2022-08-22T17:12:06.913Z,25.86
2022-08-22T17:15:07.278Z,26.99
2022-08-22T17:18:11.682Z,28.44
2022-08-22T17:21:11.634Z,28.75
2022-08-22T17:24:10.272Z,29.10
2022-08-22T17:27:07.367Z,30.13
2022-08-22T17:29:56.928Z,31.02
2022-08-22T17:32:32.559Z,32.03
2022-08-22T17:35:20.702Z,32.44
2022-08-22T17:38:00.823Z,33.23
2022-08-22T17:40:37.328Z,32.79
2022-08-22T17:43:33.665Z,34.12
2022-08-22T17:46:35.891Z,35.19
2022-08-22T17:49:40.742Z,36.30
2022-08-22T17:52:35.728Z,38.12
2022-08-22T17:55:05.555Z,37.11
2022-08-22T17:57:50.495Z,39.20
2022-08-22T18:00:39.172Z,39.58
2022-08-22T18:03:08.757Z,40.93
2022-08-22T18:06:09.889Z,40.68
2022-08-22T18:09:15.240Z,40.77
2022-08-22T18:11:52.015Z,42.02
2022-08-22T18:14:33.271Z,42.08
2022-08-22T18:17:42.597Z,42.25
2022-08-22T18:20:17.569Z,42.84
2022-08-22T18:22:54.027Z,43.85
2022-08-22T18:25:20.535Z,44.58
2022-08-22T18:28:25.514Z,44.25
2022-08-22T18:31:02.056Z,44.34
2022-08-22T18:33:33.204Z,43.66
2022-08-22T18:36:30.257Z,44.93
2022-08-22T18:39:06.922Z,45.98
2022-08-22T18:42:07.363Z,46.78
2022-08-22T18:44:36.824Z,48.41
2022-08-22T18:47:35.164Z,48.17
2022-08-22T18:50:41.830Z,48.31
2022-08-22T18:53:38.358Z,48.84
2022-08-22T18:56:50.364Z,49.24
2022-08-22T18:59:59.259Z,50.05
2022-08-22T19:02:55.656Z,51.82
2022-08-22T19:05:37.869Z,52.26
2022-08-22T19:08:35.440Z,53.52
2022-08-22T19:11:12.829Z,53.27
2022-08-22T19:13:42.196Z,54.39
2022-08-22T19:16:26.365Z,55.28
2022-08-22T19:19:17.124Z,56.34
2022-08-22T19:22:19.374Z,56.91
2022-08-22T19:25:15.350Z,57.27
2022-08-22T19:28:11.641Z,57.74
2022-08-22T19:30:44.266Z,58.80
2022-08-22T19:33:19.638Z,58.92
2022-08-22T19:36:35.217Z,58.87
2022-08-22T19:39:04.480Z,59.84
2022-08-22T19:41:46.285Z,58.95
2022-08-22T19:44:37.634Z,58.88
2022-08-22T19:47:50.463Z,59.35
2022-08-22T19:50:16.935Z,61.45
2022-08-22T19:52:56.499Z,61.81
2022-08-22T19:55:38.179Z,62.49
2022-08-22T19:58:33.047Z,63.21
2022-08-22T20:01:37.392Z,63.79
2022-08-22T20:04:22.814Z,64.53
2022-08-22T20:07:02.162Z,65.10
2022-08-22T20:09:46.187Z,64.90
2022-08-22T20:12:16.101Z,64.98
2022-08-22T20:14:45.646Z,65.21
2022-08-22T20:17:42.182Z,65.04
2022-08-22T20:20:38.248Z,65.43
2022-08-22T20:23:25.150Z,65.21
2022-08-22T20:25:57.118Z,65.90
2022-08-22T20:28:29.623Z,65.35
2022-08-22T20:31:03.423Z,65.80
2022-08-22T20:33:34.922Z,65.94
2022-08-22T20:36:21.188Z,65.85
2022-08-22T20:38:58.628Z,66.72
2022-08-22T20:41:35.618Z,66.44
2022-08-22T20:44:15.932Z,67.01
2022-08-22T20:47:24.377Z,67.37
2022-08-22T20:49:57.581Z,67.73
2022-08-22T20:52:28.538Z,67.88
2022-08-22T20:55:17.794Z,67.44
2022-08-22T20:58:02.645Z,67.25
2022-08-22T21:00:44.302Z,67.65
2022-08-22T21:03:32.535Z,67.60
2022-08-22T21:06:43.288Z,66.97
2022-08-22T21:09:46.993Z,67.69
2022-08-22T21:12:14.118Z,68.50
2022-08-22T21:14:47.167Z,68.51
2022-08-22T21:17:33.677Z,68.72
2022-08-22T21:20:21.395Z,69.03
2022-08-22T21:22:48.439Z,69.25
2022-08-22T21:25:15.033Z,69.31
2022-08-22T21:27:47.785Z,69.54
2022-08-22T21:30:22.858Z,69.52
2022-08-22T21:32:55.531Z,69.70
2022-08-22T21:35:29.942Z,70.00
2022-08-22T21:37:58.068Z,70.25
2022-08-22T21:40:37.067Z,70.27
2022-08-22T21:43:10.571Z,70.34
2022-08-22T21:45:43.358Z,70.83
2022-08-22T21:48:40.676Z,70.15
2022-08-22T21:51:23.650Z,70.29
2022-08-22T21:54:03.698Z,69.72
2022-08-22T21:56:37.283Z,70.06
2022-08-22T21:59:26.692Z,70.35
2022-08-22T22:02:28.456Z,70.20
2022-08-22T22:04:56.281Z,70.69
2022-08-22T22:07:24.124Z,70.85
2022-08-22T22:09:54.650Z,70.81
2022-08-22T22:12:22.942Z,70.70
2022-08-22T22:14:50.104Z,71.19
2022-08-22T22:17:19.068Z,71.41
2022-08-22T22:19:46.491Z,71.10
2022-08-22T22:22:13.368Z,71.20
2022-08-22T22:24:39.969Z,71.51
2022-08-22T22:27:07.296Z,71.51
2022-08-22T22:29:34.750Z,71.51
2022-08-22T22:32:01.683Z,70.73
2022-08-22T22:34:28.203Z,71.68
2022-08-22T22:37:22.831Z,71.71
2022-08-22T22:39:49.636Z,72.31
2022-08-22T22:42:16.140Z,71.74
2022-08-22T22:44:47.442Z,71.95
2022-08-22T22:47:29.532Z,72.21
2022-08-22T22:49:56.644Z,72.50
2022-08-22T22:52:24.614Z,72.80
2022-08-22T22:54:52.585Z,72.83
2022-08-22T22:57:42.568Z,72.78
2022-08-22T23:00:12.959Z,72.93
2022-08-22T23:02:40.747Z,73.14
2022-08-22T23:05:09.390Z,73.04
2022-08-22T23:07:37.950Z,73.24
2022-08-22T23:10:07.094Z,73.31
2022-08-22T23:12:35.738Z,73.62
2022-08-22T23:15:02.798Z,73.32
2022-08-22T23:18:06.237Z,72.88
2022-08-22T23:20:33.057Z,73.28
2022-08-22T23:22:59.883Z,73.68
2022-08-22T23:25:26.898Z,73.63
2022-08-22T23:27:53.953Z,73.74
2022-08-22T23:30:21.696Z,73.62
2022-08-22T23:32:48.340Z,73.60
2022-08-22T23:35:14.843Z,73.59
2022-08-22T23:37:41.553Z,74.01
2022-08-22T23:40:09.640Z,73.83
2022-08-22T23:42:36.223Z,73.55
2022-08-22T23:45:03.405Z,73.85
2022-08-22T23:47:30.163Z,74.00
2022-08-22T23:49:56.730Z,73.72
2022-08-22T23:52:23.239Z,74.16
2022-08-22T23:54:54.276Z,74.27
2022-08-22T23:57:26.560Z,74.72
2022-08-22T23:59:57.608Z,74.85
